sensor_id;sensor_type;location;lat;lon;timestamp;P1;durP1;ratioP1;P2;durP2;ratioP2
28802;SDS011;15949;55.656;37.422;2023-01-31T00:04:32;8.93;;;6.07;;
28802;SDS011;15949;55.656;37.422;2023-01-31T00:09:37;9.38;;;6.03;;
28802;SDS011;15949;55.656;37.422;2023-01-31T00:14:43;9.77;;;6.85;;
28802;SDS011;15949;55.656;37.422;2023-01-31T00:19:49;10.32;;;6.38;;
28802;SDS011;15949;55.656;37.422;2023-01-31T00:24:54;11.35;;;6.80;;
28802;SDS011;15949;55.656;37.422;2023-01-31T00:30:00;11.32;;;7.05;;
28802;SDS011;15949;55.656;37.422;2023-01-31T00:35:06;9.45;;;6.80;;
28802;SDS011;15949;55.656;37.422;2023-01-31T00:40:11;10.57;;;6.90;;
28802;SDS011;15949;55.656;37.422;2023-01-31T00:45:17;11.80;;;7.03;;
28802;SDS011;15949;55.656;37.422;2023-01-31T00:50:23;10.18;;;7.35;;
28802;SDS011;15949;55.656;37.422;2023-01-31T00:55:29;10.23;;;6.65;;
28802;SDS011;15949;55.656;37.422;2023-01-31T01:00:35;11.35;;;6.85;;
28802;SDS011;15949;55.656;37.422;2023-01-31T01:05:40;10.93;;;7.15;;
28802;SDS011;15949;55.656;37.422;2023-01-31T01:10:46;10.90;;;7.20;;
28802;SDS011;15949;55.656;37.422;2023-01-31T01:15:52;11.00;;;7.03;;
28802;SDS011;15949;55.656;37.422;2023-01-31T01:21:03;9.02;;;6.88;;
28802;SDS011;15949;55.656;37.422;2023-01-31T01:26:30;11.32;;;7.60;;
28802;SDS011;15949;55.656;37.422;2023-01-31T01:31:38;10.10;;;7.20;;
28802;SDS011;15949;55.656;37.422;2023-01-31T01:36:44;11.10;;;7.40;;
28802;SDS011;15949;55.656;37.422;2023-01-31T01:41:49;10.93;;;7.32;;
28802;SDS011;15949;55.656;37.422;2023-01-31T01:46:55;9.60;;;6.85;;
28802;SDS011;15949;55.656;37.422;2023-01-31T01:52:02;10.88;;;7.40;;
28802;SDS011;15949;55.656;37.422;2023-01-31T01:57:11;10.27;;;7.43;;
28802;SDS011;15949;55.656;37.422;2023-01-31T02:02:24;10.13;;;7.30;;
28802;SDS011;15949;55.656;37.422;2023-01-31T02:07:30;10.20;;;7.35;;
28802;SDS011;15949;55.656;37.422;2023-01-31T02:12:35;10.52;;;7.20;;
28802;SDS011;15949;55.656;37.422;2023-01-31T02:17:41;9.65;;;7.13;;
28802;SDS011;15949;55.656;37.422;2023-01-31T02:33:45;11.20;;;8.00;;
28802;SDS011;15949;55.656;37.422;2023-01-31T02:55:20;10.50;;;7.75;;
28802;SDS011;15949;55.656;37.422;2023-01-31T03:00:48;11.77;;;8.25;;
28802;SDS011;15949;55.656;37.422;2023-01-31T03:11:35;11.15;;;8.00;;
28802;SDS011;15949;55.656;37.422;2023-01-31T03:16:52;12.50;;;8.40;;
28802;SDS011;15949;55.656;37.422;2023-01-31T03:22:33;12.07;;;8.37;;
28802;SDS011;15949;55.656;37.422;2023-01-31T03:27:47;11.25;;;8.18;;
28802;SDS011;15949;55.656;37.422;2023-01-31T03:33:01;12.65;;;8.23;;
28802;SDS011;15949;55.656;37.422;2023-01-31T03:38:20;12.15;;;8.75;;
28802;SDS011;15949;55.656;37.422;2023-01-31T03:43:32;13.00;;;8.73;;
28802;SDS011;15949;55.656;37.422;2023-01-31T03:48:42;13.05;;;9.02;;
28802;SDS011;15949;55.656;37.422;2023-01-31T03:53:53;15.32;;;9.23;;
28802;SDS011;15949;55.656;37.422;2023-01-31T03:59:08;14.50;;;8.85;;
28802;SDS011;15949;55.656;37.422;2023-01-31T04:04:20;12.75;;;8.70;;
28802;SDS011;15949;55.656;37.422;2023-01-31T04:09:30;16.33;;;8.95;;
28802;SDS011;15949;55.656;37.422;2023-01-31T04:14:35;14.00;;;9.50;;
28802;SDS011;15949;55.656;37.422;2023-01-31T04:19:41;14.20;;;9.10;;
28802;SDS011;15949;55.656;37.422;2023-01-31T04:24:47;12.88;;;8.07;;
28802;SDS011;15949;55.656;37.422;2023-01-31T04:29:52;13.02;;;9.50;;
28802;SDS011;15949;55.656;37.422;2023-01-31T04:34:58;16.02;;;10.25;;
28802;SDS011;15949;55.656;37.422;2023-01-31T04:40:03;15.13;;;10.32;;
28802;SDS011;15949;55.656;37.422;2023-01-31T04:45:10;14.13;;;9.75;;
28802;SDS011;15949;55.656;37.422;2023-01-31T04:50:15;16.52;;;11.40;;
28802;SDS011;15949;55.656;37.422;2023-01-31T04:55:21;17.08;;;9.98;;
28802;SDS011;15949;55.656;37.422;2023-01-31T05:00:27;17.10;;;10.77;;
28802;SDS011;15949;55.656;37.422;2023-01-31T05:05:33;17.55;;;11.18;;
28802;SDS011;15949;55.656;37.422;2023-01-31T05:10:38;15.75;;;10.60;;
28802;SDS011;15949;55.656;37.422;2023-01-31T05:15:46;15.50;;;10.90;;
28802;SDS011;15949;55.656;37.422;2023-01-31T05:20:53;17.27;;;11.10;;
28802;SDS011;15949;55.656;37.422;2023-01-31T05:25:59;16.08;;;11.05;;
28802;SDS011;15949;55.656;37.422;2023-01-31T05:31:05;16.55;;;11.32;;
28802;SDS011;15949;55.656;37.422;2023-01-31T05:36:12;17.15;;;11.40;;
28802;SDS011;15949;55.656;37.422;2023-01-31T05:41:17;17.00;;;11.10;;
28802;SDS011;15949;55.656;37.422;2023-01-31T05:46:23;16.02;;;11.52;;
28802;SDS011;15949;55.656;37.422;2023-01-31T05:51:29;16.70;;;11.57;;
28802;SDS011;15949;55.656;37.422;2023-01-31T05:56:34;17.42;;;11.75;;
28802;SDS011;15949;55.656;37.422;2023-01-31T06:01:40;15.88;;;11.55;;
28802;SDS011;15949;55.656;37.422;2023-01-31T06:06:45;17.63;;;11.73;;
28802;SDS011;15949;55.656;37.422;2023-01-31T06:11:51;16.95;;;11.35;;
28802;SDS011;15949;55.656;37.422;2023-01-31T06:16:57;18.80;;;11.77;;
28802;SDS011;15949;55.656;37.422;2023-01-31T06:22:03;17.48;;;12.18;;
28802;SDS011;15949;55.656;37.422;2023-01-31T06:27:09;19.00;;;12.38;;
28802;SDS011;15949;55.656;37.422;2023-01-31T06:32:15;18.75;;;12.07;;
28802;SDS011;15949;55.656;37.422;2023-01-31T06:37:21;16.88;;;11.82;;
28802;SDS011;15949;55.656;37.422;2023-01-31T06:42:26;18.02;;;11.98;;
28802;SDS011;15949;55.656;37.422;2023-01-31T06:47:32;18.83;;;12.43;;
28802;SDS011;15949;55.656;37.422;2023-01-31T06:52:40;17.25;;;12.57;;
28802;SDS011;15949;55.656;37.422;2023-01-31T06:57:46;16.80;;;12.23;;
28802;SDS011;15949;55.656;37.422;2023-01-31T07:02:53;16.73;;;11.52;;
28802;SDS011;15949;55.656;37.422;2023-01-31T07:08:00;16.63;;;12.20;;
28802;SDS011;15949;55.656;37.422;2023-01-31T07:13:05;18.30;;;11.70;;
28802;SDS011;15949;55.656;37.422;2023-01-31T07:18:11;16.08;;;11.60;;
28802;SDS011;15949;55.656;37.422;2023-01-31T07:23:16;18.33;;;12.35;;
28802;SDS011;15949;55.656;37.422;2023-01-31T07:28:22;19.70;;;12.48;;
28802;SDS011;15949;55.656;37.422;2023-01-31T07:33:28;17.08;;;11.93;;
28802;SDS011;15949;55.656;37.422;2023-01-31T07:38:34;17.02;;;11.80;;
28802;SDS011;15949;55.656;37.422;2023-01-31T07:43:39;19.17;;;12.10;;
28802;SDS011;15949;55.656;37.422;2023-01-31T07:48:45;18.23;;;12.25;;
28802;SDS011;15949;55.656;37.422;2023-01-31T07:53:51;16.55;;;11.35;;
28802;SDS011;15949;55.656;37.422;2023-01-31T07:58:57;17.10;;;12.00;;
28802;SDS011;15949;55.656;37.422;2023-01-31T08:04:04;16.75;;;11.35;;
28802;SDS011;15949;55.656;37.422;2023-01-31T08:09:11;16.70;;;10.90;;
28802;SDS011;15949;55.656;37.422;2023-01-31T08:14:18;15.57;;;11.40;;
28802;SDS011;15949;55.656;37.422;2023-01-31T08:19:29;15.43;;;11.32;;
28802;SDS011;15949;55.656;37.422;2023-01-31T08:24:35;17.17;;;10.65;;
28802;SDS011;15949;55.656;37.422;2023-01-31T08:29:41;17.08;;;10.85;;
28802;SDS011;15949;55.656;37.422;2023-01-31T08:34:47;15.93;;;11.82;;
28802;SDS011;15949;55.656;37.422;2023-01-31T08:39:53;16.63;;;11.35;;
28802;SDS011;15949;55.656;37.422;2023-01-31T08:44:59;18.88;;;11.50;;
28802;SDS011;15949;55.656;37.422;2023-01-31T08:50:04;18.08;;;11.52;;
28802;SDS011;15949;55.656;37.422;2023-01-31T08:55:12;18.00;;;11.88;;
28802;SDS011;15949;55.656;37.422;2023-01-31T09:00:18;26.40;;;15.38;;
28802;SDS011;15949;55.656;37.422;2023-01-31T09:05:25;19.15;;;12.68;;
28802;SDS011;15949;55.656;37.422;2023-01-31T09:10:32;17.77;;;12.40;;
28802;SDS011;15949;55.656;37.422;2023-01-31T09:15:38;17.05;;;11.88;;
28802;SDS011;15949;55.656;37.422;2023-01-31T09:20:43;19.58;;;12.80;;
28802;SDS011;15949;55.656;37.422;2023-01-31T09:25:55;16.88;;;12.07;;
28802;SDS011;15949;55.656;37.422;2023-01-31T09:31:03;17.52;;;11.90;;
28802;SDS011;15949;55.656;37.422;2023-01-31T09:36:14;18.30;;;12.15;;
28802;SDS011;15949;55.656;37.422;2023-01-31T09:46:51;17.83;;;12.25;;
28802;SDS011;15949;55.656;37.422;2023-01-31T09:52:02;20.08;;;12.23;;
28802;SDS011;15949;55.656;37.422;2023-01-31T09:57:12;17.10;;;12.05;;
28802;SDS011;15949;55.656;37.422;2023-01-31T10:02:34;16.27;;;11.15;;
28802;SDS011;15949;55.656;37.422;2023-01-31T10:13:37;16.98;;;11.82;;
28802;SDS011;15949;55.656;37.422;2023-01-31T10:29:32;17.25;;;11.23;;
28802;SDS011;15949;55.656;37.422;2023-01-31T10:34:49;20.60;;;11.07;;
28802;SDS011;15949;55.656;37.422;2023-01-31T10:40:11;16.17;;;10.77;;
28802;SDS011;15949;55.656;37.422;2023-01-31T10:45:21;15.10;;;11.00;;
28802;SDS011;15949;55.656;37.422;2023-01-31T10:50:30;17.60;;;11.30;;
28802;SDS011;15949;55.656;37.422;2023-01-31T11:00:49;17.52;;;11.10;;
28802;SDS011;15949;55.656;37.422;2023-01-31T11:05:56;17.75;;;11.20;;
28802;SDS011;15949;55.656;37.422;2023-01-31T11:11:06;16.85;;;11.50;;
28802;SDS011;15949;55.656;37.422;2023-01-31T11:16:38;18.73;;;11.52;;
28802;SDS011;15949;55.656;37.422;2023-01-31T11:21:48;16.77;;;11.77;;
28802;SDS011;15949;55.656;37.422;2023-01-31T11:27:06;19.33;;;11.18;;
28802;SDS011;15949;55.656;37.422;2023-01-31T11:37:26;15.43;;;10.80;;
28802;SDS011;15949;55.656;37.422;2023-01-31T11:42:35;16.13;;;11.32;;
28802;SDS011;15949;55.656;37.422;2023-01-31T11:47:57;19.55;;;11.85;;
28802;SDS011;15949;55.656;37.422;2023-01-31T11:58:33;16.13;;;10.37;;
28802;SDS011;15949;55.656;37.422;2023-01-31T12:03:46;19.50;;;10.95;;
28802;SDS011;15949;55.656;37.422;2023-01-31T12:08:54;16.15;;;10.40;;
28802;SDS011;15949;55.656;37.422;2023-01-31T12:14:14;15.00;;;10.98;;
28802;SDS011;15949;55.656;37.422;2023-01-31T12:19:28;16.92;;;10.45;;
28802;SDS011;15949;55.656;37.422;2023-01-31T12:46:48;18.85;;;11.25;;
28802;SDS011;15949;55.656;37.422;2023-01-31T12:58:08;16.38;;;11.68;;
28802;SDS011;15949;55.656;37.422;2023-01-31T13:08:35;19.75;;;11.77;;
28802;SDS011;15949;55.656;37.422;2023-01-31T13:13:53;20.80;;;11.88;;
28802;SDS011;15949;55.656;37.422;2023-01-31T13:24:32;18.40;;;11.80;;
28802;SDS011;15949;55.656;37.422;2023-01-31T13:29:44;21.77;;;12.93;;
28802;SDS011;15949;55.656;37.422;2023-01-31T13:34:58;23.50;;;13.10;;
28802;SDS011;15949;55.656;37.422;2023-01-31T13:40:19;21.85;;;13.38;;
28802;SDS011;15949;55.656;37.422;2023-01-31T13:45:31;20.67;;;13.15;;
28802;SDS011;15949;55.656;37.422;2023-01-31T13:50:43;20.00;;;12.85;;
28802;SDS011;15949;55.656;37.422;2023-01-31T13:55:52;21.30;;;13.02;;
28802;SDS011;15949;55.656;37.422;2023-01-31T14:06:07;20.27;;;12.23;;
28802;SDS011;15949;55.656;37.422;2023-01-31T14:17:00;21.15;;;12.27;;
28802;SDS011;15949;55.656;37.422;2023-01-31T14:27:27;19.40;;;12.40;;
28802;SDS011;15949;55.656;37.422;2023-01-31T14:49:31;19.73;;;12.23;;
28802;SDS011;15949;55.656;37.422;2023-01-31T15:00:25;20.73;;;12.32;;
28802;SDS011;15949;55.656;37.422;2023-01-31T15:21:36;21.30;;;12.55;;
28802;SDS011;15949;55.656;37.422;2023-01-31T15:26:47;21.65;;;13.27;;
28802;SDS011;15949;55.656;37.422;2023-01-31T15:31:56;22.67;;;13.48;;
28802;SDS011;15949;55.656;37.422;2023-01-31T15:37:12;24.55;;;14.35;;
28802;SDS011;15949;55.656;37.422;2023-01-31T15:42:25;24.33;;;13.88;;
28802;SDS011;15949;55.656;37.422;2023-01-31T15:47:31;22.80;;;13.60;;
28802;SDS011;15949;55.656;37.422;2023-01-31T15:52:36;23.98;;;13.82;;
28802;SDS011;15949;55.656;37.422;2023-01-31T15:57:52;25.17;;;15.20;;
28802;SDS011;15949;55.656;37.422;2023-01-31T16:03:02;24.43;;;14.37;;
28802;SDS011;15949;55.656;37.422;2023-01-31T16:13:33;26.08;;;15.35;;
28802;SDS011;15949;55.656;37.422;2023-01-31T16:18:42;25.25;;;15.88;;
28802;SDS011;15949;55.656;37.422;2023-01-31T16:23:58;31.00;;;16.50;;
28802;SDS011;15949;55.656;37.422;2023-01-31T16:29:11;31.35;;;16.58;;
28802;SDS011;15949;55.656;37.422;2023-01-31T16:34:29;32.35;;;17.38;;
28802;SDS011;15949;55.656;37.422;2023-01-31T16:39:43;31.45;;;17.10;;
28802;SDS011;15949;55.656;37.422;2023-01-31T16:44:53;35.72;;;19.20;;
28802;SDS011;15949;55.656;37.422;2023-01-31T16:55:26;28.17;;;16.45;;
28802;SDS011;15949;55.656;37.422;2023-01-31T17:00:31;30.67;;;18.52;;
28802;SDS011;15949;55.656;37.422;2023-01-31T17:05:39;35.63;;;18.45;;
28802;SDS011;15949;55.656;37.422;2023-01-31T17:10:47;31.65;;;17.13;;
28802;SDS011;15949;55.656;37.422;2023-01-31T17:15:53;28.63;;;16.30;;
28802;SDS011;15949;55.656;37.422;2023-01-31T17:20:59;29.48;;;17.48;;
28802;SDS011;15949;55.656;37.422;2023-01-31T17:26:05;30.20;;;17.35;;
28802;SDS011;15949;55.656;37.422;2023-01-31T17:31:23;30.20;;;16.52;;
28802;SDS011;15949;55.656;37.422;2023-01-31T17:36:28;27.35;;;17.05;;
28802;SDS011;15949;55.656;37.422;2023-01-31T17:41:34;31.58;;;16.90;;
28802;SDS011;15949;55.656;37.422;2023-01-31T17:46:41;29.67;;;17.40;;
28802;SDS011;15949;55.656;37.422;2023-01-31T17:51:48;30.52;;;18.02;;
28802;SDS011;15949;55.656;37.422;2023-01-31T17:56:53;28.02;;;16.67;;
28802;SDS011;15949;55.656;37.422;2023-01-31T18:01:59;30.63;;;16.98;;
28802;SDS011;15949;55.656;37.422;2023-01-31T18:07:05;29.05;;;16.33;;
28802;SDS011;15949;55.656;37.422;2023-01-31T18:12:10;28.90;;;17.38;;
28802;SDS011;15949;55.656;37.422;2023-01-31T18:17:16;28.20;;;16.08;;
28802;SDS011;15949;55.656;37.422;2023-01-31T18:22:23;27.38;;;16.77;;
28802;SDS011;15949;55.656;37.422;2023-01-31T18:27:29;28.15;;;16.85;;
28802;SDS011;15949;55.656;37.422;2023-01-31T18:32:35;26.67;;;16.00;;
28802;SDS011;15949;55.656;37.422;2023-01-31T18:37:41;27.10;;;16.35;;
28802;SDS011;15949;55.656;37.422;2023-01-31T18:42:46;31.67;;;17.13;;
28802;SDS011;15949;55.656;37.422;2023-01-31T18:47:52;31.35;;;18.08;;
28802;SDS011;15949;55.656;37.422;2023-01-31T18:52:58;30.20;;;17.58;;
28802;SDS011;15949;55.656;37.422;2023-01-31T18:58:04;29.58;;;17.33;;
28802;SDS011;15949;55.656;37.422;2023-01-31T19:03:10;29.40;;;17.40;;
28802;SDS011;15949;55.656;37.422;2023-01-31T19:08:15;26.75;;;16.73;;
28802;SDS011;15949;55.656;37.422;2023-01-31T19:13:24;30.13;;;17.70;;
28802;SDS011;15949;55.656;37.422;2023-01-31T19:18:30;28.15;;;16.73;;
28802;SDS011;15949;55.656;37.422;2023-01-31T19:23:36;27.42;;;16.65;;
28802;SDS011;15949;55.656;37.422;2023-01-31T19:28:42;26.05;;;15.80;;
28802;SDS011;15949;55.656;37.422;2023-01-31T19:33:49;26.45;;;16.08;;
28802;SDS011;15949;55.656;37.422;2023-01-31T19:38:56;27.73;;;15.38;;
28802;SDS011;15949;55.656;37.422;2023-01-31T19:44:03;26.25;;;15.73;;
28802;SDS011;15949;55.656;37.422;2023-01-31T19:49:08;23.65;;;14.38;;
28802;SDS011;15949;55.656;37.422;2023-01-31T19:54:15;24.00;;;15.30;;
28802;SDS011;15949;55.656;37.422;2023-01-31T19:59:22;27.55;;;15.48;;
28802;SDS011;15949;55.656;37.422;2023-01-31T20:04:27;25.42;;;15.60;;
28802;SDS011;15949;55.656;37.422;2023-01-31T20:09:36;26.42;;;15.68;;
28802;SDS011;15949;55.656;37.422;2023-01-31T20:14:42;24.15;;;14.93;;
28802;SDS011;15949;55.656;37.422;2023-01-31T20:19:47;29.85;;;15.95;;
28802;SDS011;15949;55.656;37.422;2023-01-31T20:24:53;28.20;;;16.52;;
28802;SDS011;15949;55.656;37.422;2023-01-31T20:30:01;26.35;;;15.88;;
28802;SDS011;15949;55.656;37.422;2023-01-31T20:35:07;29.92;;;16.30;;
28802;SDS011;15949;55.656;37.422;2023-01-31T20:40:12;31.98;;;17.65;;
28802;SDS011;15949;55.656;37.422;2023-01-31T20:45:18;31.48;;;16.85;;
28802;SDS011;15949;55.656;37.422;2023-01-31T20:50:24;31.40;;;17.70;;
28802;SDS011;15949;55.656;37.422;2023-01-31T20:55:31;31.98;;;18.58;;
28802;SDS011;15949;55.656;37.422;2023-01-31T21:00:36;31.08;;;17.88;;
28802;SDS011;15949;55.656;37.422;2023-01-31T21:05:42;30.63;;;17.73;;
28802;SDS011;15949;55.656;37.422;2023-01-31T21:10:48;29.73;;;16.42;;
28802;SDS011;15949;55.656;37.422;2023-01-31T21:15:59;30.20;;;17.85;;
28802;SDS011;15949;55.656;37.422;2023-01-31T21:21:08;31.20;;;17.00;;
28802;SDS011;15949;55.656;37.422;2023-01-31T21:26:15;33.20;;;18.35;;
28802;SDS011;15949;55.656;37.422;2023-01-31T21:31:21;29.20;;;15.60;;
28802;SDS011;15949;55.656;37.422;2023-01-31T21:36:26;30.63;;;17.30;;
28802;SDS011;15949;55.656;37.422;2023-01-31T21:41:32;30.23;;;16.83;;
28802;SDS011;15949;55.656;37.422;2023-01-31T21:46:56;31.05;;;17.65;;
28802;SDS011;15949;55.656;37.422;2023-01-31T21:52:02;32.53;;;17.38;;
28802;SDS011;15949;55.656;37.422;2023-01-31T21:57:09;32.53;;;18.27;;
28802;SDS011;15949;55.656;37.422;2023-01-31T22:02:14;31.15;;;17.67;;
28802;SDS011;15949;55.656;37.422;2023-01-31T22:07:20;33.58;;;17.65;;
28802;SDS011;15949;55.656;37.422;2023-01-31T22:12:25;35.47;;;21.52;;
28802;SDS011;15949;55.656;37.422;2023-01-31T22:17:31;31.83;;;18.83;;
28802;SDS011;15949;55.656;37.422;2023-01-31T22:22:37;33.72;;;19.42;;
28802;SDS011;15949;55.656;37.422;2023-01-31T22:27:42;33.55;;;18.23;;
28802;SDS011;15949;55.656;37.422;2023-01-31T22:32:48;34.47;;;19.20;;
28802;SDS011;15949;55.656;37.422;2023-01-31T22:37:53;31.90;;;18.92;;
28802;SDS011;15949;55.656;37.422;2023-01-31T22:42:59;34.22;;;19.30;;
28802;SDS011;15949;55.656;37.422;2023-01-31T22:48:05;36.80;;;19.20;;
28802;SDS011;15949;55.656;37.422;2023-01-31T22:53:10;32.75;;;18.92;;
28802;SDS011;15949;55.656;37.422;2023-01-31T22:58:16;36.63;;;19.75;;
28802;SDS011;15949;55.656;37.422;2023-01-31T23:03:24;37.20;;;18.45;;
28802;SDS011;15949;55.656;37.422;2023-01-31T23:08:30;34.58;;;17.65;;
28802;SDS011;15949;55.656;37.422;2023-01-31T23:13:36;30.60;;;18.00;;
28802;SDS011;15949;55.656;37.422;2023-01-31T23:18:42;33.50;;;18.63;;
28802;SDS011;15949;55.656;37.422;2023-01-31T23:23:48;30.73;;;17.90;;
28802;SDS011;15949;55.656;37.422;2023-01-31T23:28:53;31.92;;;18.20;;
28802;SDS011;15949;55.656;37.422;2023-01-31T23:33:59;34.58;;;18.70;;
28802;SDS011;15949;55.656;37.422;2023-01-31T23:39:04;34.72;;;17.70;;
28802;SDS011;15949;55.656;37.422;2023-01-31T23:44:10;30.92;;;17.65;;
28802;SDS011;15949;55.656;37.422;2023-01-31T23:49:16;32.20;;;18.15;;
28802;SDS011;15949;55.656;37.422;2023-01-31T23:54:21;31.67;;;17.40;;
28802;SDS011;15949;55.656;37.422;2023-01-31T23:59:28;33.60;;;16.90;;
